createdAt,value
2022-12-12T00:00:15.493Z,-1.08
2022-12-12T00:02:44.317Z,-1.03
2022-12-12T00:05:17.357Z,-1.08
2022-12-12T00:07:46.228Z,-1.12
2022-12-12T00:10:16.216Z,-1.06
2022-12-12T00:12:44.821Z,-1.19
2022-12-12T00:15:13.952Z,-1.10
2022-12-12T00:17:42.550Z,-1.25
2022-12-12T00:20:11.494Z,-1.01
2022-12-12T00:22:39.837Z,-1.03
2022-12-12T00:25:08.971Z,-1.14
2022-12-12T00:27:39.033Z,-1.14
2022-12-12T00:30:09.264Z,-1.10
2022-12-12T00:32:37.765Z,-1.20
2022-12-12T00:35:08.125Z,-1.31
2022-12-12T00:37:36.418Z,-1.30
2022-12-12T00:40:07.591Z,-1.28
2022-12-12T00:42:35.900Z,-1.45
2022-12-12T00:45:06.431Z,-1.41
2022-12-12T00:47:34.982Z,-1.35
2022-12-12T00:50:03.457Z,-1.38
2022-12-12T00:52:31.852Z,-1.45
2022-12-12T00:55:00.274Z,-1.24
2022-12-12T00:57:28.745Z,-1.44
2022-12-12T00:59:56.993Z,-1.44
2022-12-12T01:02:28.460Z,-1.44
2022-12-12T01:04:56.978Z,-1.43
2022-12-12T01:07:25.488Z,-1.48
2022-12-12T01:09:54.266Z,-1.50
2022-12-12T01:12:22.594Z,-1.59
2022-12-12T01:14:53.424Z,-1.63
2022-12-12T01:17:22.053Z,-1.74
2022-12-12T01:19:52.080Z,-1.72
2022-12-12T01:22:20.492Z,-1.62
2022-12-12T01:24:48.773Z,-1.63
2022-12-12T01:27:17.598Z,-1.62
2022-12-12T01:29:45.904Z,-1.67
2022-12-12T01:32:14.857Z,-1.54
2022-12-12T01:34:43.204Z,-1.54
2022-12-12T01:37:13.337Z,-1.43
2022-12-12T01:39:43.874Z,-1.73
2022-12-12T01:42:15.528Z,-1.72
2022-12-12T01:44:48.063Z,-1.57
2022-12-12T01:47:20.018Z,-1.47
2022-12-12T01:49:54.782Z,-1.58
2022-12-12T01:52:30.317Z,-1.77
2022-12-12T01:55:02.549Z,-1.63
2022-12-12T01:57:36.111Z,-1.62
2022-12-12T02:00:09.890Z,-1.67
2022-12-12T02:02:39.839Z,-1.85
2022-12-12T02:05:16.952Z,-1.66
2022-12-12T02:07:46.691Z,-1.89
2022-12-12T02:10:15.117Z,-1.99
2022-12-12T02:12:43.826Z,-1.90
2022-12-12T02:15:13.303Z,-2.10
2022-12-12T02:18:04.098Z,-2.17
2022-12-12T02:21:02.746Z,-1.84
2022-12-12T02:24:28.011Z,-2.05
2022-12-12T02:27:38.317Z,-2.06
2022-12-12T02:30:14.248Z,-2.38
2022-12-12T02:33:14.144Z,-2.20
2022-12-12T02:36:03.081Z,-2.32
2022-12-12T02:38:40.245Z,-2.29
2022-12-12T02:41:19.608Z,-2.15
2022-12-12T02:44:00.984Z,-2.11
2022-12-12T02:46:39.673Z,-2.27
2022-12-12T02:49:16.329Z,-2.11
2022-12-12T02:51:45.607Z,-2.07
2022-12-12T02:54:17.543Z,-2.14
2022-12-12T02:56:52.779Z,-2.01
2022-12-12T02:59:29.323Z,-2.00
2022-12-12T03:02:32.961Z,-2.02
2022-12-12T03:05:52.634Z,-2.05
2022-12-12T03:08:40.741Z,-2.07
2022-12-12T03:11:16.002Z,-2.05
2022-12-12T03:13:51.402Z,-1.99
2022-12-12T03:16:29.046Z,-2.00
2022-12-12T03:19:03.042Z,-2.12
2022-12-12T03:21:40.753Z,-2.05
2022-12-12T03:24:15.467Z,-2.11
2022-12-12T03:26:48.777Z,-2.06
2022-12-12T03:29:21.392Z,-2.07
2022-12-12T03:31:58.283Z,-2.19
2022-12-12T03:34:32.881Z,-2.08
2022-12-12T03:37:09.096Z,-2.02
2022-12-12T03:39:45.542Z,-2.09
2022-12-12T03:42:21.075Z,-2.20
2022-12-12T03:44:54.239Z,-2.08
2022-12-12T03:47:28.692Z,-2.24
2022-12-12T03:50:05.206Z,-2.06
2022-12-12T03:52:40.215Z,-2.11
2022-12-12T03:55:14.727Z,-2.19
2022-12-12T03:57:49.653Z,-2.16
2022-12-12T04:00:18.717Z,-2.01
2022-12-12T04:02:51.963Z,-2.07
2022-12-12T04:05:24.709Z,-1.91
2022-12-12T04:08:04.450Z,-1.90
2022-12-12T04:10:57.745Z,-1.94
2022-12-12T04:13:32.633Z,-1.91
2022-12-12T04:16:07.785Z,-2.00
2022-12-12T04:18:43.501Z,-1.94
2022-12-12T04:21:43.464Z,-1.87
2022-12-12T04:24:24.840Z,-1.75
2022-12-12T04:26:59.856Z,-1.88
2022-12-12T04:29:37.339Z,-1.97
2022-12-12T04:32:16.073Z,-1.90
2022-12-12T04:34:52.184Z,-1.91
2022-12-12T04:37:27.254Z,-1.67
2022-12-12T04:40:01.755Z,-1.81
2022-12-12T04:42:35.601Z,-1.83
2022-12-12T04:45:10.197Z,-1.88
2022-12-12T04:47:41.159Z,-1.63
2022-12-12T04:50:11.735Z,-1.70
2022-12-12T04:52:42.257Z,-1.59
2022-12-12T04:55:16.506Z,-1.76
2022-12-12T04:57:49.784Z,-1.72
2022-12-12T05:00:20.473Z,-1.70
2022-12-12T05:02:55.694Z,-1.82
2022-12-12T05:05:31.230Z,-1.67
2022-12-12T05:08:16.410Z,-1.58
2022-12-12T05:10:51.172Z,-1.66
2022-12-12T05:13:23.774Z,-1.73
2022-12-12T05:15:56.961Z,-1.70
2022-12-12T05:18:26.089Z,-1.71
2022-12-12T05:20:55.266Z,-1.51
2022-12-12T05:23:24.046Z,-1.68
2022-12-12T05:25:54.181Z,-1.81
2022-12-12T05:28:23.596Z,-1.81
2022-12-12T05:30:51.910Z,-1.72
2022-12-12T05:33:20.380Z,-1.70
2022-12-12T05:35:48.939Z,-1.54
2022-12-12T05:38:17.259Z,-1.53
2022-12-12T05:40:46.000Z,-1.64
2022-12-12T05:43:15.775Z,-1.61
2022-12-12T05:45:44.336Z,-1.66
2022-12-12T05:48:13.046Z,-1.62
2022-12-12T05:50:41.679Z,-1.63
2022-12-12T05:53:10.440Z,-1.62
2022-12-12T05:55:38.963Z,-1.74
2022-12-12T05:58:07.228Z,-1.73
2022-12-12T06:00:37.128Z,-1.66
2022-12-12T06:03:05.876Z,-1.72
2022-12-12T06:05:35.326Z,-1.60
2022-12-12T06:08:04.018Z,-1.73
2022-12-12T06:10:32.418Z,-1.72
2022-12-12T06:13:00.873Z,-1.78
2022-12-12T06:15:29.717Z,-1.77
2022-12-12T06:17:59.581Z,-1.85
2022-12-12T06:20:30.478Z,-1.74
2022-12-12T06:22:58.856Z,-1.81
2022-12-12T06:25:27.777Z,-1.81
2022-12-12T06:27:56.110Z,-1.73
2022-12-12T06:30:24.716Z,-1.94
2022-12-12T06:32:53.260Z,-1.91
2022-12-12T06:35:23.762Z,-1.83
2022-12-12T06:37:52.153Z,-1.93
2022-12-12T06:40:20.570Z,-1.93
2022-12-12T06:42:49.113Z,-1.93
2022-12-12T06:45:17.861Z,-1.87
2022-12-12T06:47:46.381Z,-1.85
2022-12-12T06:50:17.860Z,-2.01
2022-12-12T06:52:51.724Z,-1.90
2022-12-12T06:55:20.249Z,-1.90
2022-12-12T06:57:48.778Z,-1.99
2022-12-12T07:00:18.512Z,-1.86
2022-12-12T07:02:47.092Z,-1.86
2022-12-12T07:05:15.781Z,-1.97
2022-12-12T07:07:44.392Z,-1.79
2022-12-12T07:10:14.181Z,-1.74
2022-12-12T07:12:45.476Z,-1.73
2022-12-12T07:15:16.116Z,-1.87
2022-12-12T07:17:44.470Z,-1.77
2022-12-12T07:20:13.005Z,-1.89
2022-12-12T07:22:41.433Z,-2.04
2022-12-12T07:25:10.403Z,-1.86
2022-12-12T07:27:40.396Z,-1.95
2022-12-12T07:30:10.519Z,-1.85
2022-12-12T07:32:38.851Z,-1.93
2022-12-12T07:35:08.212Z,-1.89
2022-12-12T07:37:36.727Z,-1.72
2022-12-12T07:40:06.233Z,-1.58
2022-12-12T07:42:34.817Z,-1.43
2022-12-12T07:45:05.712Z,-1.50
2022-12-12T07:47:34.047Z,-1.53
2022-12-12T07:50:02.369Z,-1.48
2022-12-12T07:52:31.825Z,-1.33
2022-12-12T07:55:01.327Z,-1.32
2022-12-12T07:57:29.991Z,-1.35
2022-12-12T07:59:58.519Z,-1.36
2022-12-12T08:02:28.257Z,-1.39
2022-12-12T08:04:56.855Z,-1.43
2022-12-12T08:07:25.322Z,-1.44
2022-12-12T08:09:53.832Z,-1.51
2022-12-12T08:12:22.248Z,-1.42
2022-12-12T08:14:50.850Z,-1.36
2022-12-12T08:17:19.088Z,-1.55
2022-12-12T08:19:48.846Z,-1.33
2022-12-12T08:22:17.313Z,-1.41
2022-12-12T08:24:45.621Z,-1.39
2022-12-12T08:27:15.976Z,-1.23
2022-12-12T08:29:44.508Z,-1.25
2022-12-12T08:32:13.109Z,-1.26
2022-12-12T08:34:41.689Z,-1.36
2022-12-12T08:37:11.450Z,-1.37
2022-12-12T08:39:40.674Z,-1.40
2022-12-12T08:42:08.955Z,-1.29
2022-12-12T08:44:37.440Z,-1.16
2022-12-12T08:47:06.136Z,-1.09
2022-12-12T08:49:34.461Z,-0.98
2022-12-12T08:52:06.072Z,-1.26
2022-12-12T08:54:35.908Z,-1.02
2022-12-12T08:57:04.569Z,-1.15
2022-12-12T08:59:32.976Z,-1.01
2022-12-12T09:02:01.518Z,-1.18
2022-12-12T09:04:31.069Z,-1.16
2022-12-12T09:07:04.912Z,-1.03
2022-12-12T09:09:37.926Z,-0.94
2022-12-12T09:12:06.979Z,-1.02
2022-12-12T09:14:35.407Z,-1.01
2022-12-12T09:17:04.772Z,-1.03
2022-12-12T09:19:33.259Z,-0.89
2022-12-12T09:22:01.674Z,-0.99
2022-12-12T09:24:29.946Z,-0.86
2022-12-12T09:26:59.742Z,-0.74
2022-12-12T09:29:28.152Z,-0.85
2022-12-12T09:32:00.827Z,-0.72
2022-12-12T09:34:29.527Z,-0.77
2022-12-12T09:36:57.780Z,-0.65
2022-12-12T09:39:26.750Z,-0.64
2022-12-12T09:41:55.233Z,-0.79
2022-12-12T09:44:27.250Z,-0.69
2022-12-12T09:47:00.623Z,-0.46
2022-12-12T09:49:43.236Z,-0.51
2022-12-12T09:52:15.697Z,-0.39
2022-12-12T09:54:44.661Z,-0.61
2022-12-12T09:57:25.031Z,-0.59
2022-12-12T10:00:03.918Z,-0.54
2022-12-12T10:03:01.679Z,-0.34
2022-12-12T10:05:40.976Z,-0.16
2022-12-12T10:08:18.437Z,-0.43
2022-12-12T10:10:50.149Z,-0.15
2022-12-12T10:13:27.298Z,0.02
2022-12-12T10:16:03.825Z,-0.20
2022-12-12T10:18:36.224Z,-0.10
2022-12-12T10:21:10.817Z,0.03
2022-12-12T10:23:47.079Z,-0.01
2022-12-12T10:26:19.396Z,-0.17
2022-12-12T10:28:54.539Z,-0.36
2022-12-12T10:31:35.653Z,-0.08
2022-12-12T10:34:24.386Z,-0.15
2022-12-12T10:37:11.544Z,-0.02
2022-12-12T10:39:53.860Z,0.13
2022-12-12T10:42:29.690Z,0.02
2022-12-12T10:45:41.733Z,-0.06
2022-12-12T10:48:14.431Z,-0.18
2022-12-12T10:50:46.753Z,-0.05
2022-12-12T10:53:15.681Z,0.11
2022-12-12T10:55:52.277Z,0.36
2022-12-12T10:58:25.604Z,0.03
2022-12-12T11:01:03.051Z,0.11
2022-12-12T11:03:37.351Z,0.11
2022-12-12T11:06:11.337Z,0.02
2022-12-12T11:08:40.855Z,0.26
2022-12-12T11:11:24.072Z,-0.12
2022-12-12T11:13:55.910Z,0.18
2022-12-12T11:16:27.647Z,0.27
2022-12-12T11:19:08.899Z,0.62
2022-12-12T11:21:39.538Z,0.70
2022-12-12T11:24:13.790Z,0.81
2022-12-12T11:26:48.323Z,0.63
2022-12-12T11:29:32.126Z,0.76
2022-12-12T11:32:01.425Z,0.49
2022-12-12T11:34:33.922Z,0.39
2022-12-12T11:37:02.549Z,0.70
2022-12-12T11:39:37.709Z,0.48
2022-12-12T11:42:19.452Z,0.79
2022-12-12T11:44:50.234Z,0.93
2022-12-12T11:47:24.143Z,1.06
2022-12-12T11:49:56.790Z,0.94
2022-12-12T11:52:28.605Z,1.11
2022-12-12T11:54:58.980Z,1.29
2022-12-12T11:57:49.648Z,0.91
2022-12-12T12:00:35.581Z,0.80
2022-12-12T12:03:40.449Z,1.12
2022-12-12T12:06:32.610Z,0.74
2022-12-12T12:09:23.382Z,1.05
2022-12-12T12:12:05.787Z,1.06
2022-12-12T12:15:08.334Z,1.17
2022-12-12T12:18:11.552Z,1.08
2022-12-12T12:21:06.419Z,1.26
2022-12-12T12:23:50.412Z,0.96
2022-12-12T12:26:25.979Z,1.16
2022-12-12T12:29:23.139Z,1.01
2022-12-12T12:32:06.472Z,0.79
2022-12-12T12:34:48.750Z,0.74
2022-12-12T12:37:34.162Z,0.70
2022-12-12T12:40:24.912Z,0.62
2022-12-12T12:43:17.010Z,0.51
2022-12-12T12:45:51.067Z,0.64
2022-12-12T12:48:23.854Z,0.55
2022-12-12T12:51:03.231Z,0.98
2022-12-12T12:53:39.213Z,0.92
2022-12-12T12:56:26.700Z,1.15
2022-12-12T12:58:59.921Z,0.76
2022-12-12T13:01:36.227Z,0.45
2022-12-12T13:04:14.437Z,0.49
2022-12-12T13:06:50.444Z,0.70
2022-12-12T13:09:30.167Z,0.70
2022-12-12T13:12:08.147Z,0.66
2022-12-12T13:14:46.071Z,0.52
2022-12-12T13:17:21.790Z,0.39
2022-12-12T13:19:54.700Z,0.58
2022-12-12T13:22:34.500Z,0.50
2022-12-12T13:25:12.521Z,0.79
2022-12-12T13:27:46.715Z,0.68
2022-12-12T13:30:23.649Z,0.65
2022-12-12T13:33:14.331Z,0.60
2022-12-12T13:35:48.293Z,0.60
2022-12-12T13:38:21.652Z,0.52
2022-12-12T13:41:00.979Z,0.54
2022-12-12T13:43:43.846Z,0.52
2022-12-12T13:46:41.134Z,0.28
2022-12-12T13:49:28.989Z,0.55
2022-12-12T13:52:28.357Z,0.43
2022-12-12T13:55:24.368Z,0.46
2022-12-12T13:58:19.483Z,0.51
2022-12-12T14:00:49.647Z,0.48
2022-12-12T14:03:31.880Z,0.22
2022-12-12T14:06:12.642Z,0.01
2022-12-12T14:08:50.483Z,-0.03
2022-12-12T14:11:34.887Z,-0.12
2022-12-12T14:14:22.644Z,-0.24
2022-12-12T14:16:58.039Z,-0.22
2022-12-12T14:19:32.897Z,-0.36
2022-12-12T14:22:01.291Z,-0.54
2022-12-12T14:25:06.543Z,-0.55
2022-12-12T14:28:18.009Z,-0.47
2022-12-12T14:31:00.505Z,-0.54
2022-12-12T14:34:05.110Z,-0.57
2022-12-12T14:37:08.607Z,-0.72
2022-12-12T14:40:01.366Z,-0.73
2022-12-12T14:43:19.478Z,-0.70
2022-12-12T14:45:37.337Z,-0.87
2022-12-12T14:48:22.003Z,-0.89
2022-12-12T14:50:57.881Z,-1.02
2022-12-12T14:53:30.296Z,-1.07
2022-12-12T14:56:02.210Z,-1.21
2022-12-12T14:58:33.494Z,-1.18
2022-12-12T15:01:05.533Z,-1.28
2022-12-12T15:03:36.906Z,-1.25
2022-12-12T15:06:34.075Z,-1.20
2022-12-12T15:09:31.631Z,-1.25
2022-12-12T15:12:15.438Z,-1.15
2022-12-12T15:14:56.120Z,-1.10
2022-12-12T15:17:28.810Z,-1.16
2022-12-12T15:20:00.850Z,-1.10
2022-12-12T15:22:33.807Z,-1.16
2022-12-12T15:25:04.936Z,-1.14
2022-12-12T15:27:41.566Z,-1.45
2022-12-12T15:30:31.250Z,-1.60
2022-12-12T15:33:02.206Z,-1.67
2022-12-12T15:35:30.851Z,-1.72
2022-12-12T15:38:06.750Z,-1.86
2022-12-12T15:40:36.344Z,-2.01
2022-12-12T15:43:08.832Z,-2.06
2022-12-12T15:45:40.161Z,-2.16
2022-12-12T15:48:16.000Z,-2.40
2022-12-12T15:50:57.983Z,-2.32
2022-12-12T15:53:30.184Z,-2.41
2022-12-12T15:56:02.136Z,-2.46
2022-12-12T15:58:34.796Z,-2.49
2022-12-12T16:01:20.954Z,-2.54
2022-12-12T16:04:00.067Z,-2.59
2022-12-12T16:06:31.193Z,-2.62
2022-12-12T16:09:18.535Z,-2.70
2022-12-12T16:11:48.569Z,-2.62
2022-12-12T16:14:40.185Z,-2.68
2022-12-12T16:17:14.200Z,-2.71
2022-12-12T16:19:57.129Z,-2.73
2022-12-12T16:22:35.169Z,-2.80
2022-12-12T16:25:18.550Z,-2.83
2022-12-12T16:27:49.356Z,-2.84
2022-12-12T16:30:18.164Z,-2.84
2022-12-12T16:32:46.782Z,-2.82
2022-12-12T16:35:20.367Z,-2.75
2022-12-12T16:37:49.165Z,-2.95
2022-12-12T16:40:21.241Z,-3.09
2022-12-12T16:42:58.105Z,-3.17
2022-12-12T16:45:26.928Z,-3.23
2022-12-12T16:47:55.442Z,-3.23
2022-12-12T16:50:23.935Z,-3.24
2022-12-12T16:52:52.465Z,-3.25
2022-12-12T16:55:25.013Z,-3.23
2022-12-12T16:57:54.345Z,-3.25
2022-12-12T17:00:22.969Z,-3.24
2022-12-12T17:02:53.450Z,-3.30
2022-12-12T17:05:25.175Z,-3.30
2022-12-12T17:07:54.638Z,-3.32
2022-12-12T17:10:26.506Z,-3.44
2022-12-12T17:12:55.696Z,-3.54
2022-12-12T17:15:28.227Z,-3.59
2022-12-12T17:17:58.466Z,-3.54
2022-12-12T17:20:28.686Z,-3.59
2022-12-12T17:26:00.665Z,-3.68
2022-12-12T17:28:30.316Z,-3.80
2022-12-12T17:30:58.712Z,-3.77
2022-12-12T17:33:27.203Z,-3.86
2022-12-12T17:36:01.039Z,-3.84
2022-12-12T17:38:30.366Z,-3.96
2022-12-12T17:41:05.316Z,-3.98
2022-12-12T17:43:34.836Z,-4.01
2022-12-12T17:46:06.124Z,-4.02
2022-12-12T17:48:37.527Z,-4.06
2022-12-12T17:51:08.532Z,-4.04
2022-12-12T17:53:38.995Z,-4.09
2022-12-12T17:56:11.925Z,-4.17
2022-12-12T17:58:42.905Z,-4.32
2022-12-12T18:01:12.888Z,-4.24
2022-12-12T18:03:41.676Z,-4.21
2022-12-12T18:06:12.124Z,-4.17
2022-12-12T18:08:41.651Z,-4.20
2022-12-12T18:11:14.250Z,-4.15
2022-12-12T18:13:43.924Z,-4.15
2022-12-12T18:16:14.319Z,-4.13
2022-12-12T18:18:43.269Z,-4.21
2022-12-12T18:21:29.236Z,-4.14
2022-12-12T18:24:05.254Z,-4.21
2022-12-12T18:26:35.200Z,-4.24
2022-12-12T18:29:06.381Z,-4.29
2022-12-12T18:31:37.227Z,-4.32
2022-12-12T18:34:08.502Z,-4.43
2022-12-12T18:36:37.288Z,-4.37
2022-12-12T18:39:06.997Z,-4.27
2022-12-12T18:41:37.912Z,-4.36
2022-12-12T18:44:08.491Z,-4.36
2022-12-12T18:46:42.849Z,-4.31
2022-12-12T18:49:15.000Z,-4.35
2022-12-12T18:51:45.240Z,-4.37
2022-12-12T18:54:16.267Z,-4.39
2022-12-12T18:56:48.070Z,-4.36
2022-12-12T18:59:17.416Z,-4.33
2022-12-12T19:01:48.227Z,-4.34
2022-12-12T19:04:22.811Z,-4.41
2022-12-12T19:06:52.568Z,-4.35
2022-12-12T19:09:22.177Z,-4.38
2022-12-12T19:11:56.892Z,-4.50
2022-12-12T19:15:15.316Z,-4.56
2022-12-12T19:17:26.166Z,-4.72
2022-12-12T19:19:56.764Z,-4.76
2022-12-12T19:25:15.206Z,-4.97
2022-12-12T19:27:45.761Z,-4.86
2022-12-12T19:30:16.832Z,-4.77
2022-12-12T19:32:48.927Z,-4.72
2022-12-12T19:35:17.911Z,-4.70
2022-12-12T19:37:46.631Z,-4.67
2022-12-12T19:40:15.800Z,-4.68
2022-12-12T19:42:46.079Z,-4.61
2022-12-12T19:45:14.864Z,-4.67
2022-12-12T19:47:43.848Z,-4.59
2022-12-12T19:50:12.943Z,-4.55
2022-12-12T19:52:41.811Z,-4.63
2022-12-12T19:55:11.224Z,-4.69
2022-12-12T19:57:39.813Z,-4.67
2022-12-12T20:00:12.709Z,-4.64
2022-12-12T20:02:41.344Z,-4.85
2022-12-12T20:05:11.580Z,-4.84
2022-12-12T20:07:41.102Z,-4.74
2022-12-12T20:10:10.946Z,-4.70
2022-12-12T20:12:44.272Z,-4.73
2022-12-12T20:15:21.984Z,-4.69
2022-12-12T20:17:50.427Z,-4.62
2022-12-12T20:20:18.969Z,-4.66
2022-12-12T20:22:47.485Z,-4.68
2022-12-12T20:25:15.879Z,-4.63
2022-12-12T20:27:45.524Z,-4.57
2022-12-12T20:30:14.457Z,-4.52
2022-12-12T20:32:45.556Z,-4.52
2022-12-12T20:35:14.131Z,-4.48
2022-12-12T20:37:42.587Z,-4.47
2022-12-12T20:40:13.539Z,-4.35
2022-12-12T20:42:42.297Z,-4.22
2022-12-12T20:45:12.280Z,-4.08
2022-12-12T20:47:41.093Z,-4.00
2022-12-12T20:50:13.569Z,-3.96
2022-12-12T20:52:42.285Z,-3.90
2022-12-12T20:55:12.323Z,-3.78
2022-12-12T20:57:44.161Z,-3.79
2022-12-12T21:00:14.953Z,-3.72
2022-12-12T21:02:47.051Z,-3.88
2022-12-12T21:05:17.391Z,-3.80
2022-12-12T21:07:45.919Z,-3.85
2022-12-12T21:10:16.997Z,-3.98
2022-12-12T21:12:47.729Z,-3.95
2022-12-12T21:15:16.599Z,-3.89
2022-12-12T21:17:45.448Z,-3.89
2022-12-12T21:20:13.913Z,-3.98
2022-12-12T21:22:43.717Z,-3.94
2022-12-12T21:25:12.645Z,-3.96
2022-12-12T21:27:41.632Z,-4.01
2022-12-12T21:30:11.616Z,-3.88
2022-12-12T21:32:40.144Z,-4.03
2022-12-12T21:35:09.882Z,-4.02
2022-12-12T21:37:40.609Z,-4.01
2022-12-12T21:40:14.631Z,-4.08
2022-12-12T21:42:43.741Z,-4.12
2022-12-12T21:45:15.673Z,-4.08
2022-12-12T21:47:44.276Z,-4.22
2022-12-12T21:50:13.795Z,-4.25
2022-12-12T21:52:42.434Z,-4.34
2022-12-12T21:55:12.863Z,-4.29
2022-12-12T21:57:41.807Z,-4.38
2022-12-12T22:00:17.414Z,-4.30
2022-12-12T22:02:49.997Z,-4.23
2022-12-12T22:05:19.420Z,-4.34
2022-12-12T22:07:48.223Z,-4.27
2022-12-12T22:10:18.639Z,-4.27
2022-12-12T22:12:57.172Z,-4.31
2022-12-12T22:15:26.522Z,-4.41
2022-12-12T22:17:55.623Z,-4.44
2022-12-12T22:20:24.747Z,-4.52
2022-12-12T22:22:55.475Z,-4.65
2022-12-12T22:25:25.701Z,-4.71
2022-12-12T22:27:53.978Z,-4.71
2022-12-12T22:30:23.178Z,-4.73
2022-12-12T22:32:51.557Z,-4.82
2022-12-12T22:35:20.565Z,-4.87
2022-12-12T22:37:49.022Z,-4.93
2022-12-12T22:40:17.760Z,-4.95
2022-12-12T22:42:47.519Z,-4.92
2022-12-12T22:45:16.525Z,-4.88
2022-12-12T22:47:45.236Z,-4.78
2022-12-12T22:50:13.968Z,-4.87
2022-12-12T22:52:44.020Z,-4.90
2022-12-12T22:55:12.502Z,-4.96
2022-12-12T22:57:43.886Z,-4.95
2022-12-12T23:00:16.342Z,-5.03
2022-12-12T23:02:44.669Z,-5.06
2022-12-12T23:05:14.119Z,-5.11
2022-12-12T23:07:42.993Z,-5.18
2022-12-12T23:10:12.093Z,-4.96
2022-12-12T23:12:40.982Z,-4.93
2022-12-12T23:15:10.759Z,-4.93
2022-12-12T23:17:42.845Z,-5.00
2022-12-12T23:20:14.004Z,-4.85
2022-12-12T23:22:46.433Z,-4.89
2022-12-12T23:25:15.937Z,-4.85
2022-12-12T23:27:45.577Z,-4.63
2022-12-12T23:30:14.278Z,-4.67
2022-12-12T23:32:43.929Z,-4.60
2022-12-12T23:35:12.693Z,-4.58
2022-12-12T23:37:42.596Z,-4.43
2022-12-12T23:40:12.714Z,-4.36
2022-12-12T23:42:41.126Z,-4.36
2022-12-12T23:45:11.004Z,-4.18
2022-12-12T23:47:39.529Z,-4.16
2022-12-12T23:50:10.943Z,-4.10
2022-12-12T23:52:39.518Z,-4.22
2022-12-12T23:55:09.115Z,-4.24
2022-12-12T23:57:37.867Z,-4.28
